Time;durP1;ratioP1;P1;durP2;ratioP2;P2;SDS_P1;SDS_P2;PMS_P1;PMS_P2;Temp;Humidity;BMP_temperature;BMP_pressure;BME280_temperature;BME280_humidity;BME280_pressure;Samples;Min_cycle;Max_cycle;Signal;HPM_P1;HPM_P2
2021/10/03 00:01:57;;;;;;;14.10;11.73;;;15.90;1.00;;;;;;5112776;28;20979;-55
2021/10/03 00:04:30;;;;;;;19.60;11.97;;;15.90;1.00;;;;;;5094703;28;20485;-55
2021/10/03 00:06:58;;;;;;;13.57;11.33;;;15.90;1.00;;;;;;5112883;28;20424;-55
2021/10/03 00:09:23;;;;;;;13.77;11.43;;;15.90;1.00;;;;;;5112945;28;20865;-54
2021/10/03 00:11:50;;;;;;;13.20;11.80;;;15.80;1.00;;;;;;5112912;28;20462;-54
2021/10/03 00:14:17;;;;;;;13.70;11.17;;;15.90;1.00;;;;;;5115031;28;20174;-55
2021/10/03 00:16:44;;;;;;;12.63;11.20;;;15.90;1.00;;;;;;5117209;28;20428;-55
2021/10/03 00:19:10;;;;;;;12.50;11.23;;;15.90;1.00;;;;;;5117292;28;20418;-55
2021/10/03 00:21:35;;;;;;;16.40;11.17;;;15.90;1.00;;;;;;5117055;28;20500;-54
2021/10/03 00:24:01;;;;;;;12.40;10.40;;;15.90;1.00;;;;;;5116982;28;20333;-55
2021/10/03 00:26:26;;;;;;;12.20;10.90;;;15.90;1.00;;;;;;5117132;28;20189;-55
2021/10/03 00:28:52;;;;;;;10.70;9.20;;;15.90;1.00;;;;;;5116801;28;20193;-55
2021/10/03 00:31:18;;;;;;;11.53;10.40;;;15.90;1.00;;;;;;5117137;28;20205;-55
2021/10/03 00:33:43;;;;;;;11.57;10.40;;;15.90;1.00;;;;;;5115694;28;20231;-55
2021/10/03 00:36:09;;;;;;;12.23;10.80;;;15.80;1.00;;;;;;5116849;28;20594;-54
2021/10/03 00:38:35;;;;;;;13.10;11.47;;;15.80;1.00;;;;;;5098571;28;20212;-55
2021/10/03 00:41:00;;;;;;;12.47;10.83;;;15.90;1.00;;;;;;5116723;28;20517;-54
2021/10/03 00:43:26;;;;;;;12.63;11.30;;;15.80;1.00;;;;;;5116973;28;20189;-55
2021/10/03 00:45:52;;;;;;;17.83;10.47;;;15.80;1.00;;;;;;5116663;28;20189;-55
2021/10/03 00:48:18;;;;;;;13.20;11.80;;;15.70;1.00;;;;;;5116476;28;20236;-54
2021/10/03 00:50:45;;;;;;;13.00;10.53;;;15.80;1.00;;;;;;5098140;28;20225;-55
2021/10/03 00:53:13;;;;;;;14.07;10.97;;;15.80;1.00;;;;;;5116496;28;20261;-56
2021/10/03 00:55:40;;;;;;;12.00;10.63;;;15.80;1.00;;;;;;5116552;28;20937;-54
2021/10/03 00:58:07;;;;;;;12.13;10.50;;;15.70;1.00;;;;;;5116363;28;21001;-54
2021/10/03 01:00:34;;;;;;;12.60;10.83;;;15.70;1.00;;;;;;5116440;28;20424;-55
2021/10/03 01:03:00;;;;;;;12.60;11.30;;;15.70;1.00;;;;;;5116471;28;20499;-54
2021/10/03 01:05:26;;;;;;;10.17;9.17;;;15.70;1.00;;;;;;5116457;28;20395;-55
2021/10/03 01:07:53;;;;;;;12.20;11.00;;;15.70;1.00;;;;;;5116213;28;20469;-55
2021/10/03 01:10:23;;;;;;;15.77;11.10;;;15.70;1.00;;;;;;5098070;28;20435;-55
2021/10/03 01:12:56;;;;;;;12.33;11.00;;;15.60;1.00;;;;;;5097647;28;20532;-55
2021/10/03 01:15:22;;;;;;;14.43;11.97;;;15.60;1.00;;;;;;5116092;28;20450;-54
2021/10/03 01:17:48;;;;;;;12.50;11.30;;;15.60;1.00;;;;;;5116267;28;20422;-55
2021/10/03 01:20:13;;;;;;;13.97;10.77;;;15.60;1.00;;;;;;5115786;28;20530;-55
2021/10/03 01:22:39;;;;;;;14.80;11.40;;;15.60;1.00;;;;;;5097754;28;20471;-54
2021/10/03 01:25:07;;;;;;;13.33;10.60;;;15.50;1.00;;;;;;5114646;28;20583;-54
2021/10/03 01:27:33;;;;;;;12.53;10.67;;;15.50;1.00;;;;;;5115786;28;20673;-55
2021/10/03 01:29:58;;;;;;;15.70;11.10;;;15.40;1.00;;;;;;5115719;28;20439;-55
2021/10/03 01:32:24;;;;;;;11.53;10.33;;;15.40;1.00;;;;;;5114280;28;20464;-54
2021/10/03 01:34:49;;;;;;;14.30;12.80;;;15.30;1.00;;;;;;5115700;28;20179;-54
2021/10/03 01:37:15;;;;;;;14.43;11.50;;;15.30;1.00;;;;;;5115864;28;20218;-55
2021/10/03 01:39:41;;;;;;;15.10;11.80;;;15.30;1.00;;;;;;5115693;28;20189;-55
2021/10/03 01:42:06;;;;;;;13.87;11.83;;;15.30;1.00;;;;;;5115484;28;20186;-55
2021/10/03 01:44:33;;;;;;;12.83;11.53;;;15.30;1.00;;;;;;5115358;28;20662;-55
2021/10/03 01:46:58;;;;;;;12.97;11.60;;;15.30;1.00;;;;;;5115507;28;20700;-55
2021/10/03 01:49:24;;;;;;;13.80;11.97;;;15.30;1.00;;;;;;5115307;28;20444;-55
2021/10/03 01:51:49;;;;;;;15.53;12.17;;;15.30;1.00;;;;;;5115362;28;20223;-55
2021/10/03 01:54:15;;;;;;;13.80;12.17;;;15.30;1.00;;;;;;5115014;28;20262;-55
2021/10/03 01:56:41;;;;;;;16.87;12.23;;;15.30;1.00;;;;;;5115266;28;20178;-55
2021/10/03 01:59:07;;;;;;;14.70;11.73;;;15.20;1.00;;;;;;5115498;28;20179;-54
2021/10/03 02:01:44;;;;;;;13.20;11.60;;;15.20;1.00;;;;;;5115159;28;20207;-55
2021/10/03 02:04:14;;;;;;;13.70;12.30;;;15.20;1.00;;;;;;5115247;28;20731;-56
2021/10/03 02:06:44;;;;;;;14.23;11.63;;;15.20;1.00;;;;;;5115523;28;20431;-54
2021/10/03 02:09:12;;;;;;;15.60;12.70;;;15.20;1.00;;;;;;5115115;28;20436;-55
2021/10/03 02:11:44;;;;;;;15.40;12.00;;;15.20;1.00;;;;;;5114827;28;20502;-54
2021/10/03 02:14:11;;;;;;;14.00;11.87;;;15.20;1.00;;;;;;5114874;28;20434;-55
2021/10/03 02:16:38;;;;;;;13.07;11.77;;;15.20;1.00;;;;;;5114873;28;20507;-55
2021/10/03 02:19:03;;;;;;;13.43;11.80;;;15.20;1.00;;;;;;5114817;28;20821;-54
2021/10/03 02:21:30;;;;;;;14.03;12.40;;;15.10;1.00;;;;;;5115129;28;20494;-54
2021/10/03 02:23:55;;;;;;;13.57;12.00;;;15.20;1.00;;;;;;5114833;28;20182;-55
2021/10/03 02:26:21;;;;;;;15.13;13.50;;;15.10;1.00;;;;;;5113367;28;20435;-55
2021/10/03 02:28:47;;;;;;;15.20;13.60;;;15.00;1.00;;;;;;5114516;28;20183;-55
2021/10/03 02:31:13;;;;;;;13.83;12.43;;;15.10;1.00;;;;;;5114610;28;20660;-55
2021/10/03 02:33:41;;;;;;;15.80;13.47;;;15.10;1.00;;;;;;5114320;28;20845;-54
2021/10/03 02:36:08;;;;;;;18.10;12.47;;;15.00;1.00;;;;;;5094876;28;20219;-55
2021/10/03 02:38:35;;;;;;;14.53;12.73;;;15.10;1.00;;;;;;5093826;28;20517;-56
2021/10/03 02:41:03;;;;;;;12.53;11.23;;;15.00;1.00;;;;;;5093921;28;20523;-55
2021/10/03 02:43:32;;;;;;;13.53;12.10;;;15.10;1.00;;;;;;5075614;28;20847;-55
2021/10/03 02:45:59;;;;;;;13.83;12.43;;;15.00;1.00;;;;;;5110747;28;20494;-55
2021/10/03 02:48:28;;;;;;;15.20;12.47;;;15.00;1.00;;;;;;5114189;28;20426;-58
2021/10/03 02:50:54;;;;;;;15.80;12.80;;;15.00;1.00;;;;;;5113825;28;20463;-54
2021/10/03 02:53:23;;;;;;;15.23;13.70;;;15.00;1.00;;;;;;5114101;28;20792;-55
2021/10/03 02:55:50;;;;;;;13.90;12.50;;;15.00;1.00;;;;;;5114080;28;20513;-55
2021/10/03 02:58:17;;;;;;;15.30;13.10;;;14.90;1.00;;;;;;5114171;28;20949;-56
2021/10/03 03:00:45;;;;;;;15.47;12.60;;;15.00;1.00;;;;;;5113941;28;20785;-55
2021/10/03 03:03:11;;;;;;;15.10;12.77;;;15.00;1.00;;;;;;5113995;28;20437;-54
2021/10/03 03:05:37;;;;;;;16.33;13.27;;;15.00;1.00;;;;;;5114031;28;20537;-54
2021/10/03 03:08:03;;;;;;;16.17;12.93;;;15.00;1.00;;;;;;5113808;28;20184;-55
2021/10/03 03:10:29;;;;;;;14.23;12.50;;;15.00;1.00;;;;;;5113934;28;20466;-55
2021/10/03 03:12:55;;;;;;;13.30;12.00;;;15.00;1.00;;;;;;5113554;28;20484;-54
2021/10/03 03:15:21;;;;;;;15.83;14.20;;;15.00;1.00;;;;;;5095359;28;20446;-55
2021/10/03 03:17:46;;;;;;;17.73;13.13;;;15.00;1.00;;;;;;5113637;28;20399;-55
2021/10/03 03:20:12;;;;;;;16.57;12.40;;;14.90;1.00;;;;;;5113387;28;20182;-54
2021/10/03 03:22:38;;;;;;;14.90;13.40;;;14.90;1.00;;;;;;5113586;28;20185;-54
2021/10/03 03:25:07;;;;;;;14.17;12.67;;;14.90;1.00;;;;;;5113588;28;20644;-55
2021/10/03 03:27:33;;;;;;;13.73;12.33;;;14.90;1.00;;;;;;5113343;28;20425;-54
2021/10/03 03:29:59;;;;;;;21.77;13.33;;;14.90;1.00;;;;;;5113395;28;20497;-55
2021/10/03 03:32:25;;;;;;;14.23;12.63;;;14.90;1.00;;;;;;5113566;28;20519;-55
2021/10/03 03:34:50;;;;;;;13.63;12.00;;;14.20;1.00;;;;;;5113260;28;20221;-54
2021/10/03 03:37:16;;;;;;;13.23;11.83;;;14.90;1.00;;;;;;5113398;28;20186;-55
2021/10/03 03:39:41;;;;;;;14.87;13.30;;;14.90;1.00;;;;;;5113636;28;20325;-55
2021/10/03 03:42:07;;;;;;;17.90;13.20;;;14.90;1.00;;;;;;5113287;28;20188;-54
2021/10/03 03:44:32;;;;;;;16.77;12.50;;;15.00;1.00;;;;;;5113568;28;20184;-55
2021/10/03 03:46:59;;;;;;;13.40;11.87;;;15.00;1.00;;;;;;5113901;28;20267;-55
2021/10/03 03:49:25;;;;;;;14.40;12.90;;;15.00;1.00;;;;;;5112676;28;20181;-55
2021/10/03 03:51:51;;;;;;;17.53;14.30;;;14.90;1.00;;;;;;5113085;28;20527;-55
2021/10/03 03:54:17;;;;;;;14.70;13.07;;;14.90;1.00;;;;;;5113038;28;20424;-55
2021/10/03 03:56:43;;;;;;;17.00;14.03;;;14.90;1.00;;;;;;5113531;28;20707;-55
2021/10/03 03:59:08;;;;;;;15.13;13.63;;;14.90;1.00;;;;;;5113278;28;20463;-55
2021/10/03 04:01:34;;;;;;;15.07;13.47;;;14.90;1.00;;;;;;5112967;28;20318;-55
2021/10/03 04:04:00;;;;;;;14.50;13.10;;;14.90;1.00;;;;;;5094772;28;20193;-54
2021/10/03 04:06:25;;;;;;;14.27;12.77;;;14.90;1.00;;;;;;5113365;28;20183;-55
2021/10/03 04:08:51;;;;;;;16.83;13.23;;;15.00;1.00;;;;;;5113096;28;20272;-54
2021/10/03 04:11:17;;;;;;;14.20;12.80;;;14.90;1.00;;;;;;5094646;28;20661;-55
2021/10/03 04:13:43;;;;;;;18.10;13.20;;;14.90;1.00;;;;;;5113058;28;20207;-56
2021/10/03 04:16:09;;;;;;;14.47;12.57;;;14.90;1.00;;;;;;5112904;28;20475;-55
2021/10/03 04:18:34;;;;;;;14.47;13.00;;;14.90;1.00;;;;;;5113116;28;20182;-55
2021/10/03 04:21:00;;;;;;;15.00;12.67;;;14.90;1.00;;;;;;5113311;28;20787;-55
2021/10/03 04:23:25;;;;;;;16.07;12.87;;;14.90;1.00;;;;;;5112876;28;20238;-55
2021/10/03 04:25:51;;;;;;;15.57;13.97;;;14.80;1.00;;;;;;5112936;28;20263;-55
2021/10/03 04:28:17;;;;;;;20.33;14.73;;;14.80;1.00;;;;;;5112761;28;20171;-55
2021/10/03 04:30:43;;;;;;;14.17;12.67;;;14.80;1.00;;;;;;5112916;28;20261;-55
2021/10/03 04:33:09;;;;;;;18.57;13.60;;;14.80;1.00;;;;;;5112821;28;20268;-55
2021/10/03 04:35:34;;;;;;;17.80;13.60;;;14.80;1.00;;;;;;5113308;28;20430;-54
2021/10/03 04:38:00;;;;;;;14.63;13.00;;;14.80;1.00;;;;;;5112898;28;20189;-54
2021/10/03 04:40:25;;;;;;;15.87;13.37;;;14.70;1.00;;;;;;5112705;28;20186;-55
2021/10/03 04:42:51;;;;;;;14.67;12.80;;;14.70;1.00;;;;;;5112764;28;20183;-54
2021/10/03 04:45:17;;;;;;;22.37;14.60;;;14.70;1.00;;;;;;5109738;28;20200;-55
2021/10/03 04:47:44;;;;;;;14.23;12.53;;;14.70;1.00;;;;;;5111150;28;20183;-55
2021/10/03 04:50:11;;;;;;;16.90;13.50;;;14.70;1.00;;;;;;5112599;28;20460;-56
2021/10/03 04:52:39;;;;;;;12.60;11.40;;;14.70;1.00;;;;;;5111240;28;20819;-55
2021/10/03 04:55:07;;;;;;;19.70;14.60;;;14.80;1.00;;;;;;5112687;28;20782;-54
2021/10/03 04:57:32;;;;;;;14.03;12.63;;;14.70;1.00;;;;;;5112503;28;20904;-53
2021/10/03 04:59:58;;;;;;;14.97;12.77;;;14.70;1.00;;;;;;5104263;28;20510;-55
2021/10/03 05:02:24;;;;;;;15.03;12.80;;;14.70;1.00;;;;;;5095931;28;20475;-55
2021/10/03 05:04:49;;;;;;;16.13;13.60;;;14.60;1.00;;;;;;5095827;28;20521;-55
2021/10/03 05:07:15;;;;;;;16.27;12.90;;;14.60;1.00;;;;;;5096013;28;20206;-55
2021/10/03 05:09:41;;;;;;;15.17;12.20;;;14.70;1.00;;;;;;5095598;28;20212;-56
2021/10/03 05:12:07;;;;;;;14.90;13.30;;;14.70;1.00;;;;;;5095635;28;20991;-55
2021/10/03 05:14:33;;;;;;;14.57;11.90;;;14.70;1.00;;;;;;5095616;28;20184;-56
2021/10/03 05:16:59;;;;;;;14.67;12.33;;;14.70;1.00;;;;;;5095721;28;20430;-55
2021/10/03 05:19:24;;;;;;;15.73;13.20;;;14.60;1.00;;;;;;5096010;28;20215;-56
2021/10/03 05:21:50;;;;;;;15.13;12.80;;;14.70;1.00;;;;;;5077422;28;20708;-54
2021/10/03 05:24:15;;;;;;;14.53;12.97;;;14.70;1.00;;;;;;5095681;28;20175;-54
2021/10/03 05:26:41;;;;;;;14.07;12.57;;;14.70;1.00;;;;;;5095491;28;20187;-54
2021/10/03 05:29:07;;;;;;;17.43;13.20;;;14.60;1.00;;;;;;5095623;28;20217;-54
2021/10/03 05:31:32;;;;;;;13.77;11.60;;;14.70;1.00;;;;;;5095446;28;20220;-54
2021/10/03 05:33:58;;;;;;;16.07;13.70;;;14.70;1.00;;;;;;5077319;28;20650;-55
2021/10/03 05:36:24;;;;;;;14.00;12.30;;;14.60;1.00;;;;;;5113832;28;20213;-55
2021/10/03 05:38:50;;;;;;;14.80;13.30;;;14.60;1.00;;;;;;5115665;28;20265;-53
2021/10/03 05:41:16;;;;;;;14.03;12.63;;;14.70;1.00;;;;;;5115841;28;20572;-54
2021/10/03 05:43:42;;;;;;;15.50;13.10;;;14.70;1.00;;;;;;5115597;28;20934;-54
2021/10/03 05:46:08;;;;;;;15.47;12.70;;;14.70;1.00;;;;;;5115508;28;20179;-54
2021/10/03 05:48:35;;;;;;;14.13;12.63;;;14.80;1.00;;;;;;5115784;28;20466;-54
2021/10/03 05:51:01;;;;;;;15.67;12.30;;;14.80;1.00;;;;;;5115310;27;20470;-55
2021/10/03 05:53:27;;;;;;;14.53;12.60;;;14.80;1.00;;;;;;5116729;28;20436;-56
2021/10/03 05:55:53;;;;;;;14.90;13.20;;;14.90;1.00;;;;;;5115170;28;20788;-53
2021/10/03 05:58:19;;;;;;;16.97;12.90;;;14.90;1.00;;;;;;5115346;28;20925;-54
2021/10/03 06:00:45;;;;;;;14.40;12.83;;;14.90;1.00;;;;;;5115322;28;20477;-55
2021/10/03 06:03:10;;;;;;;17.37;13.30;;;14.90;1.00;;;;;;5115333;28;20187;-55
2021/10/03 06:05:36;;;;;;;16.17;13.20;;;15.00;1.00;;;;;;5115161;28;20203;-55
2021/10/03 06:08:01;;;;;;;16.20;12.13;;;14.90;1.00;;;;;;5115109;28;20255;-55
2021/10/03 06:10:27;;;;;;;16.17;12.70;;;15.00;1.00;;;;;;5115469;27;20210;-55
2021/10/03 06:12:53;;;;;;;14.83;13.40;;;15.00;1.00;;;;;;5114183;28;20206;-54
2021/10/03 06:15:18;;;;;;;13.10;11.70;;;15.00;1.00;;;;;;5114813;28;20185;-55
2021/10/03 06:17:44;;;;;;;14.17;12.60;;;15.10;1.00;;;;;;5115242;28;20261;-54
2021/10/03 06:20:12;;;;;;;17.50;12.50;;;15.10;1.00;;;;;;5114811;27;20176;-54
2021/10/03 06:22:40;;;;;;;15.20;13.60;;;15.30;1.00;;;;;;5113228;28;20955;-54
2021/10/03 06:25:06;;;;;;;14.30;12.80;;;15.30;1.00;;;;;;5115037;28;20556;-55
2021/10/03 06:27:32;;;;;;;13.60;12.20;;;15.60;1.00;;;;;;5114771;28;20472;-54
2021/10/03 06:29:58;;;;;;;15.37;12.10;;;15.30;1.00;;;;;;5114806;28;20467;-54
2021/10/03 06:32:23;;;;;;;14.23;12.63;;;15.50;1.00;;;;;;5114672;28;20202;-55
2021/10/03 06:34:49;;;;;;;14.53;13.00;;;15.50;1.00;;;;;;5114969;28;20453;-54
2021/10/03 06:37:15;;;;;;;13.70;12.40;;;15.60;1.00;;;;;;5114507;28;20662;-54
2021/10/03 06:39:41;;;;;;;13.73;12.20;;;15.60;1.00;;;;;;5114730;28;20185;-55
2021/10/03 06:42:06;;;;;;;13.67;12.33;;;15.70;1.00;;;;;;5114462;27;20441;-55
2021/10/03 06:44:32;;;;;;;16.20;13.80;;;15.80;1.00;;;;;;5114307;28;20190;-54
2021/10/03 06:46:57;;;;;;;17.20;13.20;;;15.90;1.00;;;;;;5114347;28;20190;-55
2021/10/03 06:49:23;;;;;;;15.60;12.10;;;15.90;1.00;;;;;;5114240;28;20187;-54
2021/10/03 06:51:48;;;;;;;15.40;12.20;;;16.00;1.00;;;;;;5114008;28;20229;-54
2021/10/03 06:54:14;;;;;;;13.43;11.90;;;16.00;1.00;;;;;;5114252;28;20189;-54
2021/10/03 06:56:39;;;;;;;14.10;12.70;;;15.90;1.00;;;;;;5113855;28;20255;-54
2021/10/03 06:59:05;;;;;;;14.10;12.53;;;16.00;1.00;;;;;;5114104;28;20189;-54
2021/10/03 07:01:33;;;;;;;13.97;12.57;;;16.10;1.00;;;;;;5113954;28;20182;-55
2021/10/03 07:03:58;;;;;;;14.10;12.60;;;16.30;1.00;;;;;;5114005;28;20604;-54
2021/10/03 07:06:24;;;;;;;12.90;11.60;;;16.30;1.00;;;;;;5099462;28;20435;-55
2021/10/03 07:08:49;;;;;;;13.43;12.10;;;16.50;1.00;;;;;;5075192;28;20195;-56
2021/10/03 07:11:15;;;;;;;12.93;11.60;;;16.70;1.00;;;;;;5093243;28;20203;-57
2021/10/03 07:13:41;;;;;;;13.70;12.30;;;16.80;1.00;;;;;;5112923;28;20185;-55
2021/10/03 07:16:06;;;;;;;14.43;12.60;;;16.70;1.00;;;;;;5113746;28;20189;-55
2021/10/03 07:18:32;;;;;;;15.17;12.30;;;16.80;1.00;;;;;;5113578;28;20192;-55
2021/10/03 07:20:57;;;;;;;13.90;12.50;;;16.90;1.00;;;;;;5113459;28;20190;-55
2021/10/03 07:23:26;;;;;;;15.20;11.90;;;17.00;1.00;;;;;;5113483;28;20190;-56
2021/10/03 07:25:52;;;;;;;13.13;11.83;;;17.10;1.00;;;;;;5113677;28;20218;-56
2021/10/03 07:28:17;;;;;;;21.00;12.93;;;17.10;1.00;;;;;;5113378;28;20426;-56
2021/10/03 07:30:43;;;;;;;13.53;12.23;;;17.20;1.00;;;;;;5113328;28;20194;-55
2021/10/03 07:33:08;;;;;;;13.40;12.10;;;17.20;1.00;;;;;;5113381;28;20202;-54
2021/10/03 07:35:34;;;;;;;13.53;12.13;;;17.20;1.00;;;;;;5113438;28;20181;-55
2021/10/03 07:37:59;;;;;;;13.90;12.50;;;17.10;1.00;;;;;;5113502;28;20174;-55
2021/10/03 07:40:25;;;;;;;17.47;12.30;;;17.00;1.00;;;;;;5113373;28;20188;-55
2021/10/03 07:42:50;;;;;;;13.70;12.30;;;17.00;1.00;;;;;;5113143;28;20189;-55
2021/10/03 07:45:17;;;;;;;18.40;13.70;;;17.10;1.00;;;;;;5113340;28;20247;-56
2021/10/03 07:47:43;;;;;;;15.17;13.33;;;17.20;1.00;;;;;;5113152;28;20182;-55
2021/10/03 07:50:09;;;;;;;14.07;12.67;;;17.30;1.00;;;;;;5112982;28;20442;-55
2021/10/03 07:52:34;;;;;;;14.20;12.87;;;17.50;1.00;;;;;;5113085;28;20507;-54
2021/10/03 07:55:00;;;;;;;13.97;12.57;;;17.50;1.00;;;;;;5112674;28;20552;-55
2021/10/03 07:57:27;;;;;;;13.93;12.53;;;17.50;1.00;;;;;;5113023;28;20178;-56
2021/10/03 07:59:52;;;;;;;13.10;11.83;;;17.50;1.00;;;;;;5092345;28;20179;-55
2021/10/03 08:02:18;;;;;;;16.20;12.33;;;17.70;1.00;;;;;;5092552;28;20459;-54
2021/10/03 08:04:43;;;;;;;13.90;12.60;;;17.70;1.00;;;;;;5092372;28;20593;-55
2021/10/03 08:07:09;;;;;;;13.33;12.03;;;17.70;1.00;;;;;;5092378;28;20185;-54
2021/10/03 08:09:34;;;;;;;14.67;13.17;;;17.70;1.00;;;;;;5092312;28;20699;-56
2021/10/03 08:12:00;;;;;;;16.50;12.97;;;17.90;1.00;;;;;;5092252;28;20209;-55
2021/10/03 08:14:25;;;;;;;14.67;13.20;;;18.00;1.00;;;;;;5092474;28;20592;-55
2021/10/03 08:16:51;;;;;;;15.70;13.10;;;18.00;1.00;;;;;;5108440;28;20197;-55
2021/10/03 08:19:17;;;;;;;14.30;12.27;;;18.10;1.00;;;;;;5097051;28;20186;-55
2021/10/03 08:21:42;;;;;;;15.53;13.93;;;18.20;1.00;;;;;;5092443;28;20198;-54
2021/10/03 08:24:08;;;;;;;16.20;13.43;;;18.30;1.00;;;;;;5104693;28;20249;-56
2021/10/03 08:26:35;;;;;;;19.73;12.67;;;18.40;1.00;;;;;;5112813;28;20192;-56
2021/10/03 08:29:00;;;;;;;14.23;12.70;;;18.50;1.00;;;;;;5111353;28;20186;-55
2021/10/03 08:31:26;;;;;;;14.60;13.00;;;18.70;1.00;;;;;;5111463;28;20462;-56
2021/10/03 08:33:51;;;;;;;15.10;11.87;;;18.90;1.00;;;;;;5112887;28;20186;-55
2021/10/03 08:36:17;;;;;;;13.77;12.47;;;18.90;1.00;;;;;;5116255;28;20219;-55
2021/10/03 08:38:42;;;;;;;13.30;11.90;;;18.90;1.00;;;;;;5116602;28;20214;-54
2021/10/03 08:41:08;;;;;;;15.27;13.67;;;18.90;1.00;;;;;;5116625;28;20224;-55
2021/10/03 08:43:34;;;;;;;15.40;13.47;;;18.90;1.00;;;;;;5116244;28;20181;-56
2021/10/03 08:45:59;;;;;;;14.70;13.20;;;19.10;1.00;;;;;;5115231;28;20189;-54
2021/10/03 08:48:26;;;;;;;14.50;12.50;;;19.20;1.00;;;;;;5116677;28;20213;-55
2021/10/03 08:50:52;;;;;;;15.80;12.50;;;19.20;1.00;;;;;;5116678;28;20237;-55
2021/10/03 08:53:18;;;;;;;13.53;12.23;;;19.30;1.00;;;;;;5116236;28;20964;-56
2021/10/03 08:55:45;;;;;;;15.63;12.90;;;19.30;1.00;;;;;;5116453;27;20240;-55
2021/10/03 08:58:11;;;;;;;17.97;13.30;;;19.20;1.00;;;;;;5116229;28;20182;-55
2021/10/03 09:00:47;;;;;;;13.57;12.23;;;19.10;1.00;;;;;;5115246;28;20406;-55
2021/10/03 09:03:14;;;;;;;14.40;12.90;;;19.20;1.00;;;;;;5116210;28;20896;-57
2021/10/03 09:05:45;;;;;;;13.67;12.20;;;19.40;1.00;;;;;;5116347;28;20444;-56
2021/10/03 09:08:11;;;;;;;14.40;12.90;;;19.50;1.00;;;;;;5116233;28;20444;-56
2021/10/03 09:10:51;;;;;;;12.97;11.87;;;19.50;1.00;;;;;;5116342;28;20446;-55
2021/10/03 09:13:18;;;;;;;14.47;12.93;;;19.70;1.00;;;;;;5116138;28;20467;-56
2021/10/03 09:15:44;;;;;;;14.13;12.80;;;19.70;1.00;;;;;;5116157;28;20527;-55
2021/10/03 09:18:10;;;;;;;13.97;12.50;;;19.50;1.00;;;;;;5115897;28;20431;-55
2021/10/03 09:20:37;;;;;;;14.97;13.47;;;19.60;1.00;;;;;;5116115;28;20416;-56
2021/10/03 09:23:17;;;;;;;13.10;11.80;;;19.80;1.00;;;;;;5115819;28;20187;-55
2021/10/03 09:25:51;;;;;;;13.00;11.37;;;20.10;1.00;;;;;;5115878;28;20542;-55
2021/10/03 09:28:17;;;;;;;12.63;11.33;;;20.30;1.00;;;;;;5115659;28;20396;-55
2021/10/03 09:31:04;;;;;;;13.67;12.27;;;20.20;1.00;;;;;;5115675;28;20428;-55
2021/10/03 09:33:38;;;;;;;14.03;12.60;;;20.10;1.00;;;;;;5115471;28;20183;-55
2021/10/03 09:36:04;;;;;;;14.17;12.73;;;20.20;1.00;;;;;;5115616;28;20432;-55
2021/10/03 09:38:40;;;;;;;14.80;13.10;;;20.30;1.00;;;;;;5115427;28;20407;-54
2021/10/03 09:41:07;;;;;;;15.33;12.40;;;20.40;1.00;;;;;;5115420;28;20438;-55
2021/10/03 09:43:51;;;;;;;15.67;12.43;;;20.50;1.00;;;;;;5115274;28;20776;-56
2021/10/03 09:46:36;;;;;;;13.57;12.27;;;20.60;1.00;;;;;;5114019;28;20518;-56
2021/10/03 09:49:05;;;;;;;13.20;11.87;;;20.60;1.00;;;;;;5115399;28;20418;-56
2021/10/03 09:51:31;;;;;;;13.70;12.37;;;20.70;1.00;;;;;;5115029;28;20514;-56
2021/10/03 09:53:57;;;;;;;14.83;11.43;;;20.70;1.00;;;;;;5115583;28;20533;-56
2021/10/03 09:56:23;;;;;;;13.23;11.83;;;20.80;1.00;;;;;;5115442;28;20462;-56
2021/10/03 09:58:50;;;;;;;12.90;11.77;;;20.90;1.00;;;;;;5115055;28;20391;-55
2021/10/03 10:01:18;;;;;;;13.47;12.07;;;21.00;1.00;;;;;;5115335;28;20194;-56
2021/10/03 10:03:43;;;;;;;13.50;11.00;;;20.90;1.00;;;;;;5114899;28;20431;-55
2021/10/03 10:06:09;;;;;;;13.13;11.73;;;20.90;1.00;;;;;;5114400;28;20474;-58
2021/10/03 10:08:38;;;;;;;13.17;11.87;;;21.00;1.00;;;;;;5114703;28;20643;-57
2021/10/03 10:11:29;;;;;;;12.43;11.10;;;21.20;1.00;;;;;;5114966;28;20167;-57
2021/10/03 10:13:56;;;;;;;13.20;11.90;;;21.30;1.00;;;;;;5114932;28;20486;-58
2021/10/03 10:16:35;;;;;;;12.60;11.40;;;21.40;1.00;;;;;;5114664;28;20427;-57
2021/10/03 10:19:38;;;;;;;13.10;11.90;;;21.60;1.00;;;;;;5114611;28;20952;-56
2021/10/03 10:22:15;;;;;;;12.57;11.37;;;21.60;1.00;;;;;;5114889;28;20404;-57
2021/10/03 10:24:44;;;;;;;13.43;11.73;;;21.50;1.00;;;;;;5114371;28;20402;-58
2021/10/03 10:27:35;;;;;;;13.57;12.07;;;21.20;1.00;;;;;;5114490;28;20435;-57
2021/10/03 10:30:06;;;;;;;13.50;12.20;;;20.90;1.00;;;;;;5114180;28;20861;-56
2021/10/03 10:32:54;;;;;;;13.90;12.50;;;20.70;1.00;;;;;;5095848;28;20538;-56
2021/10/03 10:35:21;;;;;;;13.70;12.07;;;20.60;1.00;;;;;;5114265;28;20436;-56
2021/10/03 10:37:49;;;;;;;13.83;11.17;;;20.80;1.00;;;;;;5095852;28;20415;-57
2021/10/03 10:40:34;;;;;;;13.70;12.20;;;21.00;1.00;;;;;;5095914;28;20460;-57
2021/10/03 10:43:02;;;;;;;12.50;11.23;;;21.30;1.00;;;;;;5114134;28;20420;-57
2021/10/03 10:45:28;;;;;;;14.17;12.43;;;21.10;1.00;;;;;;5114104;28;20433;-58
2021/10/03 10:48:08;;;;;;;14.03;11.80;;;21.80;1.00;;;;;;5114054;28;20403;-56
2021/10/03 10:50:54;;;;;;;15.17;12.37;;;21.80;1.00;;;;;;5113944;28;20215;-57
2021/10/03 10:53:22;;;;;;;12.57;11.37;;;21.80;1.00;;;;;;5112367;28;20853;-57
2021/10/03 10:56:18;;;;;;;11.73;10.63;;;21.90;1.00;;;;;;5114242;28;20413;-56
2021/10/03 10:58:50;;;;;;;11.30;10.30;;;22.10;1.00;;;;;;5113627;28;20911;-56
2021/10/03 11:01:17;;;;;;;16.60;11.00;;;22.20;1.00;;;;;;5113878;28;20416;-56
2021/10/03 11:03:42;;;;;;;11.93;10.53;;;22.10;1.00;;;;;;5114535;28;20438;-56
2021/10/03 11:06:21;;;;;;;13.97;11.57;;;21.90;1.00;;;;;;5114002;28;20794;-56
2021/10/03 11:08:58;;;;;;;12.77;11.57;;;21.80;1.00;;;;;;5113883;28;20662;-57
2021/10/03 11:11:25;;;;;;;11.73;10.53;;;21.70;1.00;;;;;;5113459;28;20423;-57
2021/10/03 11:13:53;;;;;;;13.23;11.87;;;21.60;1.00;;;;;;5113516;28;20428;-56
2021/10/03 11:16:46;;;;;;;13.20;11.27;;;21.60;1.00;;;;;;5113482;28;20783;-57
2021/10/03 11:19:21;;;;;;;13.10;11.90;;;21.70;1.00;;;;;;5113810;28;20519;-57
2021/10/03 11:21:52;;;;;;;11.07;10.17;;;21.80;1.00;;;;;;5113520;28;20405;-56
2021/10/03 11:24:26;;;;;;;12.17;10.93;;;21.90;1.00;;;;;;5113580;28;20456;-56
2021/10/03 11:26:57;;;;;;;12.20;10.90;;;22.00;1.00;;;;;;5113426;28;20519;-56
2021/10/03 11:29:25;;;;;;;14.30;12.00;;;22.10;1.00;;;;;;5113230;28;20399;-56
2021/10/03 11:32:01;;;;;;;12.90;11.17;;;22.30;1.00;;;;;;5113306;28;20452;-56
2021/10/03 11:34:29;;;;;;;11.70;10.60;;;22.30;1.00;;;;;;5113033;28;20427;-56
2021/10/03 11:36:56;;;;;;;13.30;11.73;;;22.30;1.00;;;;;;5113246;28;20395;-56
2021/10/03 11:39:35;;;;;;;11.33;10.13;;;22.40;1.00;;;;;;5113132;28;20918;-57
2021/10/03 11:42:00;;;;;;;11.53;10.23;;;22.40;1.00;;;;;;5113585;28;20402;-57
2021/10/03 11:44:26;;;;;;;12.40;10.90;;;22.40;1.00;;;;;;5113105;28;20477;-56
2021/10/03 11:47:18;;;;;;;11.90;10.70;;;22.40;1.00;;;;;;5113406;28;20182;-56
2021/10/03 11:49:46;;;;;;;12.40;11.13;;;22.60;1.00;;;;;;5109034;28;20214;-56
2021/10/03 11:52:25;;;;;;;12.60;11.40;;;22.60;1.00;;;;;;5112616;28;20564;-57
2021/10/03 11:54:54;;;;;;;11.77;10.57;;;22.60;1.00;;;;;;5113207;28;20407;-57
2021/10/03 11:57:29;;;;;;;13.17;11.37;;;22.50;1.00;;;;;;5095813;28;20447;-57
2021/10/03 12:00:16;;;;;;;12.70;11.40;;;22.50;1.00;;;;;;5113163;28;20484;-56
2021/10/03 12:02:48;;;;;;;12.63;11.40;;;22.50;1.00;;;;;;5112874;28;20414;-57
2021/10/03 12:05:26;;;;;;;12.20;11.00;;;22.50;1.00;;;;;;5113006;28;20435;-56
2021/10/03 12:08:13;;;;;;;11.50;10.40;;;22.50;1.00;;;;;;5112842;28;20442;-57
2021/10/03 12:10:45;;;;;;;12.40;11.03;;;22.50;1.00;;;;;;5111985;28;20417;-57
2021/10/03 12:13:12;;;;;;;12.00;10.80;;;22.70;1.00;;;;;;5112930;28;20492;-57
2021/10/03 12:15:48;;;;;;;13.93;12.60;;;22.80;1.00;;;;;;5112695;28;20875;-57
2021/10/03 12:18:38;;;;;;;12.00;10.67;;;22.80;1.00;;;;;;5112903;28;20497;-56
2021/10/03 12:21:07;;;;;;;12.10;10.80;;;22.80;1.00;;;;;;5112874;28;20422;-57
2021/10/03 12:23:42;;;;;;;12.87;10.67;;;22.80;1.00;;;;;;5112424;28;20432;-56
2021/10/03 12:26:11;;;;;;;12.63;11.37;;;22.80;1.00;;;;;;5112957;28;20439;-58
2021/10/03 12:29:21;;;;;;;13.27;11.27;;;22.80;1.00;;;;;;5112627;28;20410;-56
2021/10/03 12:31:55;;;;;;;12.03;10.67;;;22.70;1.00;;;;;;5030509;28;20575;-56
2021/10/03 12:34:23;;;;;;;12.30;11.10;;;22.70;1.00;;;;;;5105142;28;20402;-56
2021/10/03 12:36:49;;;;;;;12.67;11.47;;;22.60;1.00;;;;;;5112431;28;20481;-56
2021/10/03 12:39:18;;;;;;;12.43;11.13;;;22.60;1.00;;;;;;5112791;28;20416;-55
2021/10/03 12:41:44;;;;;;;10.83;9.77;;;22.70;1.00;;;;;;5112749;28;20279;-56
2021/10/03 12:44:10;;;;;;;13.37;11.07;;;22.70;1.00;;;;;;5094069;28;20414;-57